Time;durP1;ratioP1;P1;durP2;ratioP2;P2;SDS_P1;SDS_P2;PMS_P1;PMS_P2;Temp;Humidity;BMP_temperature;BMP_pressure;BME280_temperature;BME280_humidity;BME280_pressure;Samples;Min_cycle;Max_cycle;Signal;HPM_P1;HPM_P2
2021/09/16 00:02:22;;;;;;;3.95;3.65;;;16.80;99.90;;;17.60;100.00;97763.78;5184943;28;20206;-61
2021/09/16 00:04:55;;;;;;;4.25;3.95;;;16.80;99.90;;;17.61;99.42;97764.66;5182179;28;20224;-61
2021/09/16 00:07:28;;;;;;;4.25;3.92;;;16.80;99.90;;;17.54;99.03;97761.91;5186873;28;20575;-60
2021/09/16 00:10:02;;;;;;;4.50;3.65;;;16.70;99.90;;;17.52;98.76;97771.31;5187296;28;20257;-59
2021/09/16 00:12:35;;;;;;;4.78;4.25;;;16.60;99.90;;;17.51;98.47;97774.75;5187072;28;20213;-60
2021/09/16 00:15:11;;;;;;;4.22;3.88;;;16.70;99.90;;;17.48;99.38;97774.66;5185000;28;20712;-60
2021/09/16 00:17:45;;;;;;;4.38;4.00;;;16.70;99.90;;;17.51;99.47;97779.91;5186998;28;20193;-61
2021/09/16 00:20:19;;;;;;;4.18;3.88;;;16.70;99.90;;;17.49;99.44;97771.22;5186904;28;20205;-60
2021/09/16 00:22:52;;;;;;;4.25;3.95;;;16.70;99.90;;;17.45;98.00;97771.09;5187090;28;20861;-59
2021/09/16 00:25:25;;;;;;;4.53;4.10;;;16.60;99.90;;;17.41;99.04;97775.28;5186102;28;20765;-60
2021/09/16 00:27:58;;;;;;;5.22;3.83;;;16.60;99.90;;;17.43;99.09;97776.22;5185713;28;20239;-60
2021/09/16 00:30:31;;;;;;;4.18;3.88;;;16.60;99.90;;;17.43;99.27;97770.19;5186435;28;20230;-60
2021/09/16 00:33:05;;;;;;;3.90;3.60;;;16.60;99.90;;;17.39;98.04;97783.84;5186365;28;20205;-60
2021/09/16 00:35:38;;;;;;;4.45;4.05;;;16.50;99.90;;;17.36;98.81;97791.50;5185235;28;20222;-59
2021/09/16 00:38:12;;;;;;;4.25;3.85;;;16.50;99.90;;;17.35;99.41;97772.53;5186398;28;20199;-61
2021/09/16 00:40:45;;;;;;;5.28;4.15;;;16.60;99.90;;;17.36;99.79;97784.63;5184099;28;20205;-61
2021/09/16 00:43:18;;;;;;;4.75;4.38;;;16.60;99.90;;;17.42;99.29;97777.03;5186605;28;20206;-61
2021/09/16 00:45:51;;;;;;;4.32;3.88;;;16.60;99.90;;;17.41;99.33;97771.84;5186377;28;20203;-61
2021/09/16 00:48:25;;;;;;;3.95;3.60;;;16.60;99.90;;;17.40;99.03;97770.06;5185644;28;20198;-61
2021/09/16 00:50:58;;;;;;;4.22;3.92;;;16.60;99.90;;;17.50;98.52;97767.81;5186148;28;20217;-61
2021/09/16 00:53:32;;;;;;;4.50;4.10;;;16.70;99.90;;;17.56;99.42;97762.78;5185562;28;20718;-61
2021/09/16 00:56:07;;;;;;;4.43;4.03;;;16.70;99.90;;;17.62;99.41;97766.41;5185320;28;20210;-60
2021/09/16 00:58:42;;;;;;;4.05;3.75;;;16.80;99.90;;;17.63;99.24;97769.03;5185966;28;20679;-59
2021/09/16 01:01:16;;;;;;;4.45;3.70;;;16.80;99.90;;;17.66;99.76;97763.94;5186285;28;20194;-61
2021/09/16 01:03:53;;;;;;;4.05;3.78;;;16.90;99.90;;;17.71;98.85;97757.19;5185257;28;20222;-61
2021/09/16 01:06:26;;;;;;;4.03;3.72;;;16.90;99.90;;;17.69;98.83;97753.69;5185450;28;20693;-60
2021/09/16 01:08:59;;;;;;;5.35;4.10;;;16.90;99.90;;;17.71;98.02;97761.47;5186559;28;20285;-61
2021/09/16 01:11:32;;;;;;;3.72;3.53;;;16.90;99.90;;;17.73;98.09;97765.84;5185871;28;20697;-60
2021/09/16 01:14:06;;;;;;;4.97;3.65;;;16.90;99.90;;;17.73;97.37;97765.84;5184879;28;20728;-61
2021/09/16 01:16:39;;;;;;;4.03;3.63;;;16.90;99.90;;;17.77;97.30;97767.72;5185498;28;20289;-60
2021/09/16 01:19:13;;;;;;;3.90;3.60;;;16.80;99.90;;;17.74;97.29;97771.91;5186963;28;20285;-59
2021/09/16 01:21:47;;;;;;;4.05;3.67;;;16.80;99.90;;;17.69;98.24;97769.19;5187789;28;20206;-61
2021/09/16 01:24:22;;;;;;;5.65;4.13;;;16.90;99.90;;;17.75;98.15;97774.53;5186796;28;20219;-61
2021/09/16 01:26:56;;;;;;;4.50;4.10;;;16.90;99.90;;;17.75;98.40;97771.06;5187165;28;20272;-60
2021/09/16 01:29:29;;;;;;;4.60;4.20;;;16.90;99.90;;;17.78;98.28;97778.94;5183700;28;20222;-60
2021/09/16 01:32:05;;;;;;;4.32;4.00;;;16.90;99.90;;;17.78;97.80;97776.38;5184790;28;20213;-61
2021/09/16 01:34:38;;;;;;;4.18;3.88;;;17.00;99.90;;;17.77;97.91;97778.06;5186820;28;20305;-61
2021/09/16 01:37:11;;;;;;;4.00;3.60;;;16.90;99.90;;;17.75;98.02;97765.91;5185953;28;20194;-60
2021/09/16 01:39:45;;;;;;;4.70;4.30;;;16.90;99.90;;;17.75;98.69;97763.31;5187194;28;20191;-61
2021/09/16 01:42:18;;;;;;;4.10;3.70;;;16.90;99.90;;;17.74;97.86;97764.13;5185654;28;20204;-61
2021/09/16 01:44:51;;;;;;;4.00;3.70;;;16.90;99.90;;;17.66;98.64;97763.09;5185546;28;20693;-61
2021/09/16 01:47:24;;;;;;;4.03;3.63;;;16.80;99.90;;;17.64;98.11;97762.16;5184978;28;20665;-61
2021/09/16 01:49:57;;;;;;;3.67;3.38;;;16.80;99.90;;;17.64;97.44;97759.56;5184753;28;20223;-60
2021/09/16 01:52:30;;;;;;;4.13;3.70;;;16.80;99.90;;;17.67;97.86;97751.91;5182976;28;20194;-61
2021/09/16 01:55:07;;;;;;;4.43;3.90;;;16.80;99.90;;;17.64;98.97;97746.66;5186466;28;20226;-60
2021/09/16 01:57:40;;;;;;;4.43;3.63;;;16.80;99.90;;;17.67;98.61;97751.91;5186672;28;20198;-61
2021/09/16 02:00:14;;;;;;;4.57;3.72;;;16.80;99.90;;;17.69;97.87;97742.47;5185422;28;20205;-60
2021/09/16 02:02:47;;;;;;;4.15;3.83;;;16.80;99.90;;;17.64;98.61;97738.88;5185664;28;20206;-60
2021/09/16 02:05:20;;;;;;;4.35;3.95;;;16.80;99.90;;;17.59;99.06;97738.75;5186171;28;20249;-60
2021/09/16 02:07:53;;;;;;;4.22;3.90;;;16.80;99.90;;;17.64;98.14;97744.06;5186580;28;20217;-61
2021/09/16 02:10:28;;;;;;;4.22;3.85;;;16.80;99.90;;;17.64;98.25;97738.88;5185033;28;20218;-59
2021/09/16 02:13:01;;;;;;;4.38;3.97;;;16.80;99.90;;;17.66;98.87;97740.69;5178247;28;20280;-59
2021/09/16 02:15:34;;;;;;;4.30;3.88;;;16.80;99.90;;;17.67;98.29;97734.66;5184347;28;20222;-60
2021/09/16 02:18:07;;;;;;;3.92;3.63;;;16.80;99.90;;;17.71;98.92;97740.78;5183403;28;20673;-60
2021/09/16 02:20:40;;;;;;;4.13;3.80;;;16.90;99.90;;;17.71;98.92;97746.88;5184889;28;20702;-61
2021/09/16 02:23:13;;;;;;;3.83;3.50;;;16.90;99.90;;;17.66;98.91;97740.69;5185426;28;20198;-61
2021/09/16 02:25:48;;;;;;;4.15;3.75;;;16.90;99.90;;;17.67;98.84;97749.31;5185407;28;20209;-61
2021/09/16 02:28:21;;;;;;;3.97;3.67;;;16.90;99.90;;;17.70;98.75;97747.69;5180730;28;20193;-61
2021/09/16 02:30:54;;;;;;;4.05;3.75;;;16.90;99.90;;;17.74;98.53;97758.97;5184613;28;20232;-61
2021/09/16 02:33:27;;;;;;;4.97;4.03;;;16.90;99.90;;;17.79;98.68;97760.88;5183838;28;20302;-60
2021/09/16 02:36:00;;;;;;;4.90;4.50;;;16.90;99.90;;;17.77;99.01;97756.50;5184882;28;20199;-59
2021/09/16 02:38:33;;;;;;;5.22;4.72;;;16.90;99.90;;;17.70;99.22;97757.16;5183937;28;20282;-60
2021/09/16 02:41:07;;;;;;;5.65;5.15;;;16.90;99.90;;;17.65;99.47;97754.41;5184509;28;20201;-60
2021/09/16 02:43:40;;;;;;;4.97;4.63;;;16.90;99.90;;;17.62;100.00;97753.47;5184710;28;20505;-60
2021/09/16 02:46:13;;;;;;;5.28;4.88;;;16.80;99.90;;;17.55;100.00;97753.31;5184253;28;20210;-61
2021/09/16 02:48:47;;;;;;;5.82;4.70;;;16.90;99.90;;;17.57;100.00;97753.38;5180555;28;21346;-61
2021/09/16 02:51:20;;;;;;;5.63;5.10;;;16.80;99.90;;;17.53;100.00;97754.09;5184521;28;20222;-60
2021/09/16 02:53:53;;;;;;;6.85;4.68;;;16.80;99.90;;;17.44;100.00;97749.53;5186979;28;20301;-61
2021/09/16 02:56:27;;;;;;;5.70;5.20;;;16.80;99.90;;;17.37;100.00;97746.72;5187672;28;20202;-60
2021/09/16 02:59:00;;;;;;;4.70;4.32;;;16.70;99.90;;;17.36;100.00;97745.88;5187991;28;20206;-60
2021/09/16 03:01:33;;;;;;;5.20;4.70;;;16.70;99.90;;;17.33;100.00;97743.19;5184878;28;20194;-61
2021/09/16 03:04:06;;;;;;;5.25;4.78;;;16.80;99.90;;;17.32;100.00;97746.63;5187519;28;20244;-61
2021/09/16 03:06:39;;;;;;;5.35;4.90;;;16.70;99.90;;;17.25;100.00;97731.75;5189550;28;20286;-60
2021/09/16 03:09:12;;;;;;;4.88;4.57;;;16.70;99.90;;;17.17;100.00;97730.66;5191080;28;20206;-57
2021/09/16 03:11:46;;;;;;;4.80;4.40;;;16.60;99.90;;;17.17;100.00;97730.66;5189604;28;20220;-59
2021/09/16 03:14:19;;;;;;;5.15;4.75;;;16.60;99.90;;;17.18;100.00;97722.97;5184134;28;20232;-58
2021/09/16 03:16:52;;;;;;;5.20;4.70;;;16.60;99.90;;;17.24;100.00;97727.44;5185917;28;20203;-50
2021/09/16 03:19:25;;;;;;;5.75;4.72;;;16.60;99.90;;;17.19;100.00;97722.13;5187318;28;20647;-56
2021/09/16 03:21:58;;;;;;;5.22;4.82;;;16.60;99.90;;;17.16;100.00;97721.16;5188148;28;20190;-54
2021/09/16 03:24:32;;;;;;;4.93;4.53;;;16.60;99.90;;;17.15;100.00;97716.84;5181586;28;20606;-57
2021/09/16 03:27:06;;;;;;;4.50;4.10;;;16.60;99.90;;;17.16;100.00;97713.41;5187979;28;20194;-55
2021/09/16 03:29:39;;;;;;;5.55;5.05;;;16.60;99.90;;;17.17;100.00;97710.00;5188138;28;20204;-56
2021/09/16 03:32:12;;;;;;;5.28;4.85;;;16.60;99.90;;;17.16;100.00;97708.25;5186320;28;20223;-56
2021/09/16 03:34:45;;;;;;;5.05;4.40;;;16.60;99.90;;;17.14;100.00;97703.06;5185561;28;20661;-53
2021/09/16 03:37:18;;;;;;;5.68;4.53;;;16.60;99.90;;;17.13;100.00;97692.66;5187852;28;20574;-55
2021/09/16 03:39:52;;;;;;;4.75;4.45;;;16.50;99.90;;;17.13;100.00;97703.00;5187998;28;20641;-51
2021/09/16 03:42:26;;;;;;;4.45;4.00;;;16.50;99.90;;;17.15;100.00;97709.97;5187739;28;20207;-55
2021/09/16 03:44:59;;;;;;;4.82;4.28;;;16.60;99.90;;;17.20;100.00;97713.56;5181538;28;20224;-55
2021/09/16 03:47:32;;;;;;;5.07;4.78;;;16.60;99.90;;;17.22;100.00;97723.91;5185510;28;20206;-55
2021/09/16 03:50:07;;;;;;;4.35;4.00;;;16.60;99.90;;;17.23;100.00;97723.97;5186228;28;20199;-50
2021/09/16 03:52:40;;;;;;;5.00;4.60;;;16.70;99.90;;;17.28;100.00;97719.81;5187384;28;20247;-53
2021/09/16 03:55:16;;;;;;;4.72;4.32;;;16.70;99.90;;;17.32;100.00;97719.06;5186232;28;20214;-55
2021/09/16 03:57:50;;;;;;;4.28;3.97;;;16.70;99.90;;;17.33;100.00;97718.22;5178630;28;20206;-56
2021/09/16 04:00:23;;;;;;;4.18;3.80;;;16.70;99.90;;;17.36;100.00;97717.44;5184276;28;20202;-57
2021/09/16 04:02:56;;;;;;;4.10;3.80;;;16.70;99.90;;;17.36;100.00;97730.34;5169063;28;20205;-56
2021/09/16 04:05:29;;;;;;;3.92;3.63;;;16.80;99.90;;;17.42;100.00;97735.69;5182341;28;20215;-60
2021/09/16 04:08:03;;;;;;;3.85;3.60;;;16.80;99.90;;;17.40;100.00;97729.63;5179092;28;20190;-61
2021/09/16 04:10:36;;;;;;;3.95;3.65;;;16.80;99.90;;;17.39;100.00;97727.00;5181859;28;20199;-52
2021/09/16 04:13:11;;;;;;;3.42;3.22;;;16.70;99.90;;;17.35;100.00;97726.03;5184641;28;20203;-54
2021/09/16 04:15:44;;;;;;;3.53;3.22;;;16.70;99.90;;;17.36;100.00;97721.72;5181973;28;20719;-53
2021/09/16 04:18:17;;;;;;;3.90;3.60;;;16.70;99.90;;;17.34;100.00;97721.72;5184409;28;20201;-54
2021/09/16 04:20:50;;;;;;;3.97;3.47;;;16.60;99.90;;;17.34;100.00;97726.88;5186009;28;20203;-52
2021/09/16 04:23:24;;;;;;;4.07;3.70;;;16.60;99.90;;;17.39;100.00;97719.25;5182932;28;20686;-53
2021/09/16 04:25:57;;;;;;;4.35;3.90;;;16.60;99.90;;;17.39;100.00;97720.09;5166042;28;20333;-55
2021/09/16 04:28:31;;;;;;;4.15;3.75;;;16.70;99.90;;;17.39;100.00;97714.06;5180746;28;20221;-56
2021/09/16 04:31:04;;;;;;;4.32;4.00;;;16.80;99.90;;;17.41;100.00;97721.03;5185844;28;20194;-56
2021/09/16 04:33:37;;;;;;;4.93;4.45;;;16.70;99.90;;;17.44;100.00;97722.84;5182768;28;20245;-55
2021/09/16 04:36:10;;;;;;;4.80;4.40;;;16.70;99.90;;;17.45;100.00;97720.28;5184344;28;20202;-59
2021/09/16 04:38:43;;;;;;;5.25;4.75;;;16.70;99.90;;;17.43;100.00;97724.53;5185682;28;20198;-55
2021/09/16 04:41:16;;;;;;;4.72;4.32;;;16.70;99.90;;;17.40;100.00;97723.56;5185959;28;20196;-57
2021/09/16 04:43:51;;;;;;;4.32;4.05;;;16.70;99.90;;;17.41;100.00;97733.09;5180788;28;20218;-57
2021/09/16 04:46:24;;;;;;;4.60;4.30;;;16.60;99.90;;;17.41;100.00;97731.38;5182717;28;20271;-54
2021/09/16 04:48:57;;;;;;;4.43;4.13;;;16.60;99.90;;;17.42;100.00;97742.56;5178217;28;20198;-55
2021/09/16 04:51:30;;;;;;;4.85;4.45;;;16.70;99.90;;;17.44;100.00;97746.97;5184795;28;20218;-58
2021/09/16 04:54:04;;;;;;;4.18;3.88;;;16.70;99.90;;;17.46;100.00;97745.31;5184962;28;20228;-56
2021/09/16 04:56:37;;;;;;;4.63;4.20;;;16.80;99.90;;;17.49;100.00;97744.50;5184691;28;20220;-54
2021/09/16 04:59:11;;;;;;;4.45;4.05;;;16.80;99.90;;;17.47;100.00;97747.03;5185743;28;20209;-55
2021/09/16 05:01:44;;;;;;;4.03;3.83;;;16.80;99.90;;;17.47;100.00;97751.34;5185736;28;20244;-54
2021/09/16 05:04:17;;;;;;;4.72;4.32;;;16.80;99.90;;;17.49;100.00;97757.44;5181244;28;20249;-53
2021/09/16 05:06:50;;;;;;;5.03;4.63;;;16.70;99.90;;;17.48;100.00;97753.97;5183868;28;20201;-60
2021/09/16 05:09:23;;;;;;;5.90;5.40;;;16.70;99.90;;;17.43;100.00;97745.22;5184852;28;20199;-55
2021/09/16 05:11:56;;;;;;;4.70;4.40;;;16.70;99.90;;;17.39;100.00;97748.53;5184472;28;20219;-56
2021/09/16 05:14:31;;;;;;;5.03;4.50;;;16.60;99.90;;;17.33;100.00;97745.78;5184102;28;20635;-57
2021/09/16 05:17:04;;;;;;;4.32;4.00;;;16.60;99.90;;;17.33;100.00;97745.78;5184508;28;20198;-53
2021/09/16 05:19:37;;;;;;;3.83;3.53;;;16.60;99.90;;;17.36;100.00;97745.00;5178370;28;20209;-57
2021/09/16 05:22:10;;;;;;;3.67;3.40;;;16.60;99.90;;;17.37;100.00;97747.63;5183597;28;20204;-54
2021/09/16 05:24:43;;;;;;;3.92;3.72;;;16.60;99.90;;;17.39;100.00;97752.81;5184127;28;20587;-53
2021/09/16 05:27:19;;;;;;;3.80;3.58;;;16.60;99.90;;;17.39;100.00;97738.19;5183048;28;20260;-55
2021/09/16 05:29:53;;;;;;;4.30;4.00;;;16.70;99.90;;;17.42;100.00;97747.75;5183878;28;20677;-54
2021/09/16 05:32:27;;;;;;;4.82;4.53;;;16.70;99.90;;;17.45;100.00;97751.28;5176996;28;20309;-58
2021/09/16 05:35:01;;;;;;;5.45;5.05;;;16.80;99.90;;;17.48;100.00;97748.81;5169865;28;20696;-53
2021/09/16 05:37:34;;;;;;;7.05;6.40;;;16.70;99.90;;;17.44;100.00;97746.97;5177575;28;20199;-51
2021/09/16 05:40:10;;;;;;;12.30;11.23;;;16.70;99.90;;;17.45;100.00;97748.69;5178071;28;20693;-56
2021/09/16 05:42:43;;;;;;;11.77;10.77;;;16.80;99.90;;;17.46;100.00;97749.59;5181414;28;20250;-50
2021/09/16 05:45:17;;;;;;;8.38;7.68;;;16.80;99.90;;;17.47;100.00;97751.34;5179414;28;20214;-54
2021/09/16 05:47:50;;;;;;;7.15;6.55;;;16.80;99.90;;;17.51;100.00;97751.47;5181716;28;20194;-55
2021/09/16 05:50:23;;;;;;;6.13;5.72;;;16.80;99.90;;;17.49;100.00;97754.84;5177733;28;20207;-55
2021/09/16 05:52:57;;;;;;;6.28;5.68;;;16.80;99.90;;;17.48;100.00;97753.97;5182523;28;20248;-52
2021/09/16 05:55:30;;;;;;;5.22;4.82;;;16.70;99.90;;;17.45;100.00;97758.16;5180557;28;20711;-58
2021/09/16 05:58:03;;;;;;;4.68;4.28;;;16.70;99.90;;;17.43;100.00;97755.56;5182889;28;20198;-54
2021/09/16 06:00:37;;;;;;;4.88;4.47;;;16.70;99.90;;;17.42;100.00;97758.94;5182827;28;20209;-54
2021/09/16 06:03:11;;;;;;;4.95;4.32;;;16.70;99.90;;;17.43;100.00;97760.72;5180335;28;20201;-55
2021/09/16 06:05:44;;;;;;;4.82;4.40;;;16.70;99.90;;;17.52;100.00;97758.38;5184050;28;20205;-52
2021/09/16 06:08:17;;;;;;;5.70;5.20;;;16.80;99.90;;;17.52;100.00;97766.16;5184724;28;20206;-59
2021/09/16 06:10:50;;;;;;;5.50;5.00;;;16.80;99.90;;;17.52;100.00;97758.38;5183053;28;20277;-56
2021/09/16 06:13:23;;;;;;;6.22;5.65;;;16.80;99.90;;;17.46;100.00;97760.81;5181321;28;20211;-53
2021/09/16 06:15:57;;;;;;;5.72;5.22;;;16.80;99.90;;;17.46;100.00;97765.97;5183048;28;20206;-56
2021/09/16 06:18:30;;;;;;;6.15;4.72;;;16.80;99.90;;;17.43;100.00;97765.03;5183919;28;20198;-55
2021/09/16 06:21:03;;;;;;;6.25;5.70;;;16.70;99.90;;;17.46;100.00;97770.28;5180967;28;20317;-53
2021/09/16 06:23:36;;;;;;;7.00;6.40;;;16.80;99.90;;;17.54;100.00;97767.06;5181947;28;20573;-50
2021/09/16 06:26:10;;;;;;;7.65;6.95;;;16.80;99.90;;;17.54;100.00;97764.50;5179745;28;20228;-52
2021/09/16 06:28:43;;;;;;;6.88;6.30;;;16.90;99.90;;;17.59;100.00;97764.59;5182912;28;20203;-57
2021/09/16 06:31:17;;;;;;;7.03;6.43;;;16.90;99.90;;;17.61;100.00;97765.53;5178214;28;20217;-59
2021/09/16 06:33:50;;;;;;;6.50;6.00;;;16.90;99.90;;;17.59;100.00;97766.31;5184099;28;20221;-55
2021/09/16 06:36:24;;;;;;;6.32;5.82;;;16.90;99.90;;;17.66;100.00;97765.66;5188614;28;20199;-52
2021/09/16 06:38:57;;;;;;;6.40;5.72;;;17.00;99.90;;;17.73;100.00;97775.31;5179804;28;20195;-60
2021/09/16 06:41:30;;;;;;;6.70;6.10;;;17.00;99.90;;;17.80;100.00;97772.13;5185945;28;20194;-56
2021/09/16 06:44:03;;;;;;;6.10;5.57;;;17.10;99.90;;;17.87;100.00;97768.84;5187582;28;20210;-53
2021/09/16 06:46:37;;;;;;;7.10;6.03;;;17.10;99.90;;;17.87;100.00;97767.97;5187765;28;20202;-56
2021/09/16 06:49:10;;;;;;;6.22;5.72;;;17.10;99.90;;;17.94;100.00;97770.78;5187791;28;20198;-55
2021/09/16 06:51:44;;;;;;;6.10;5.50;;;17.20;99.90;;;18.01;100.00;97770.09;5186847;28;20213;-52
2021/09/16 06:54:17;;;;;;;6.45;5.88;;;17.30;99.90;;;18.05;100.00;97768.44;5186205;28;20222;-57
2021/09/16 06:56:50;;;;;;;5.68;5.18;;;17.30;99.90;;;18.06;100.00;97771.94;5187820;28;20699;-52
2021/09/16 06:59:23;;;;;;;5.95;5.50;;;17.30;99.90;;;18.06;100.00;97780.56;5184411;28;20207;-55
2021/09/16 07:01:57;;;;;;;6.28;5.68;;;17.30;99.90;;;18.07;100.00;97778.84;5185871;28;20659;-57
2021/09/16 07:04:31;;;;;;;6.35;5.75;;;17.30;99.90;;;18.09;100.00;97780.66;5187668;28;20210;-59
2021/09/16 07:07:06;;;;;;;6.43;5.82;;;17.30;99.90;;;18.06;100.00;97782.28;5187789;28;20199;-54
2021/09/16 07:09:39;;;;;;;6.03;5.50;;;17.30;99.90;;;18.07;100.00;97787.47;5187966;28;20233;-56
2021/09/16 07:12:12;;;;;;;6.50;6.00;;;17.30;99.90;;;18.09;100.00;97788.41;5186599;28;20205;-57
2021/09/16 07:14:45;;;;;;;6.75;6.07;;;17.30;99.90;;;18.07;100.00;97778.84;5186699;28;20226;-56
2021/09/16 07:17:20;;;;;;;6.10;5.60;;;17.30;99.90;;;18.08;100.00;97785.78;5187059;28;20202;-58
2021/09/16 07:19:52;;;;;;;6.80;5.80;;;17.30;99.90;;;18.10;100.00;97789.28;5185296;28;20198;-53
2021/09/16 07:22:26;;;;;;;6.07;5.50;;;17.40;99.90;;;18.11;100.00;97786.72;5181248;28;20199;-57
2021/09/16 07:24:59;;;;;;;5.80;5.22;;;17.40;99.90;;;18.07;100.00;97782.31;5185238;28;20273;-55
2021/09/16 07:27:32;;;;;;;5.78;5.38;;;17.30;99.90;;;18.06;100.00;97775.41;5186257;28;20206;-57
2021/09/16 07:30:07;;;;;;;6.30;5.65;;;17.40;99.90;;;18.06;100.00;97779.69;5186322;28;20198;-57
2021/09/16 07:32:41;;;;;;;9.20;8.30;;;17.30;99.90;;;18.10;100.00;97782.38;5186299;28;20194;-55
2021/09/16 07:35:14;;;;;;;9.68;8.75;;;17.40;99.90;;;18.17;100.00;97791.19;5186144;28;20214;-58
2021/09/16 07:37:47;;;;;;;7.22;6.63;;;17.50;99.90;;;18.22;100.00;97792.19;5187153;28;20203;-53
2021/09/16 07:40:20;;;;;;;6.82;6.15;;;17.50;99.90;;;18.28;100.00;97787.16;5187681;28;20206;-54
2021/09/16 07:42:53;;;;;;;5.63;5.07;;;17.50;99.90;;;18.36;100.00;97792.53;5185589;28;20199;-56
2021/09/16 07:45:27;;;;;;;5.57;4.93;;;17.60;99.90;;;18.44;100.00;97798.78;5182331;28;20219;-56
2021/09/16 07:48:01;;;;;;;7.30;5.45;;;17.60;99.90;;;18.50;100.00;97798.06;5181913;28;20199;-55
2021/09/16 07:50:34;;;;;;;6.30;5.30;;;17.70;99.90;;;18.58;100.00;97796.53;5186318;28;20652;-55
2021/09/16 07:53:10;;;;;;;5.78;5.18;;;17.70;99.90;;;18.70;100.00;97802.00;5183523;28;20219;-54
2021/09/16 07:55:43;;;;;;;6.20;5.70;;;17.80;99.90;;;18.86;100.00;97796.41;5178957;28;21246;-50
2021/09/16 07:58:16;;;;;;;5.82;5.40;;;18.00;99.90;;;19.04;100.00;97810.59;5181998;28;20199;-51
2021/09/16 08:00:51;;;;;;;6.75;6.00;;;18.10;99.90;;;19.17;100.00;97804.84;5185661;28;20602;-54
2021/09/16 08:03:25;;;;;;;5.60;5.15;;;18.20;99.90;;;19.36;100.00;97807.00;5180273;28;20190;-54
2021/09/16 08:05:58;;;;;;;4.80;4.50;;;18.40;99.90;;;19.66;100.00;97805.03;5177003;28;20572;-58
2021/09/16 08:08:32;;;;;;;4.90;4.15;;;18.60;99.90;;;19.82;100.00;97801.91;5183270;28;20201;-53
2021/09/16 08:11:05;;;;;;;4.45;4.07;;;18.70;99.90;;;20.00;100.00;97801.41;5185861;28;20685;-55
2021/09/16 08:13:38;;;;;;;4.05;3.65;;;18.70;99.90;;;20.14;100.00;97799.06;5184425;28;20231;-51
2021/09/16 08:16:11;;;;;;;4.10;3.65;;;18.90;99.90;;;20.30;100.00;97805.41;5184013;28;20677;-55
2021/09/16 08:18:47;;;;;;;3.60;3.33;;;19.00;99.90;;;20.58;100.00;97812.00;5180824;28;20199;-50
2021/09/16 08:21:21;;;;;;;3.75;3.40;;;19.30;99.90;;;20.61;100.00;97812.91;5182863;28;20198;-51
2021/09/16 08:23:55;;;;;;;3.90;3.60;;;19.30;99.90;;;20.79;100.00;97806.25;5184198;28;20214;-50
2021/09/16 08:26:28;;;;;;;3.60;3.35;;;19.30;99.90;;;20.89;100.00;97810.78;5182276;28;20202;-52
2021/09/16 08:29:02;;;;;;;3.63;3.35;;;19.30;99.90;;;21.00;100.00;97816.97;5185159;28;20550;-49
2021/09/16 08:31:35;;;;;;;3.58;3.28;;;19.40;99.90;;;21.03;100.00;97821.34;5182827;28;20190;-51
2021/09/16 08:34:10;;;;;;;3.15;2.85;;;19.50;99.90;;;21.00;100.00;97810.91;5178239;28;20729;-56
2021/09/16 08:36:43;;;;;;;3.60;3.30;;;19.30;99.90;;;20.87;100.00;97826.31;5183434;28;20212;-51
2021/09/16 08:39:16;;;;;;;3.78;3.47;;;19.20;99.90;;;20.69;100.00;97818.25;5185805;28;20197;-51
2021/09/16 08:41:50;;;;;;;3.60;3.10;;;19.20;99.90;;;20.53;100.00;97824.91;5184484;28;20198;-57
2021/09/16 08:44:23;;;;;;;4.63;3.30;;;19.10;99.90;;;20.46;100.00;97823.03;5184141;28;20214;-57
2021/09/16 08:46:56;;;;;;;5.32;3.38;;;19.00;99.90;;;20.34;100.00;97827.97;5180275;28;20568;-51
2021/09/16 08:49:31;;;;;;;3.22;2.92;;;19.00;99.90;;;20.17;100.00;97825.97;5177684;28;20205;-56
2021/09/16 08:52:05;;;;;;;3.20;2.72;;;18.90;99.90;;;20.05;100.00;97830.03;5184167;28;20197;-54
2021/09/16 08:54:41;;;;;;;3.30;2.88;;;18.90;99.90;;;20.03;100.00;97830.88;5180790;28;20232;-54
2021/09/16 08:57:16;;;;;;;4.53;2.78;;;18.80;99.90;;;19.92;100.00;97842.78;5182274;28;20198;-59
2021/09/16 08:59:50;;;;;;;5.22;3.20;;;18.80;99.90;;;19.79;100.00;97835.59;5184595;28;20201;-57
2021/09/16 09:02:23;;;;;;;3.08;2.78;;;18.80;99.90;;;19.50;100.00;97837.53;5180152;28;20211;-56
2021/09/16 09:04:57;;;;;;;2.80;2.60;;;18.60;99.90;;;19.33;100.00;97840.63;5181007;28;20494;-54
2021/09/16 09:07:38;;;;;;;2.58;2.38;;;18.50;99.90;;;19.23;100.00;97851.66;5184163;28;20224;-60
2021/09/16 09:10:33;;;;;;;3.00;2.80;;;18.40;99.90;;;19.12;100.00;97853.13;5182431;28;20204;-58
2021/09/16 09:13:09;;;;;;;3.00;2.70;;;18.40;99.90;;;19.07;100.00;97847.81;5185106;28;20685;-54
2021/09/16 09:15:45;;;;;;;2.70;2.50;;;18.40;99.90;;;19.02;100.00;97845.97;5182742;28;20218;-54
2021/09/16 09:18:20;;;;;;;3.45;2.47;;;18.30;99.90;;;19.01;100.00;97854.59;5180044;28;20186;-55
2021/09/16 09:20:59;;;;;;;3.10;2.40;;;18.30;99.90;;;18.99;100.00;97853.66;5180609;28;20208;-56
2021/09/16 09:23:35;;;;;;;2.28;2.10;;;18.30;99.90;;;18.92;100.00;97862.13;5180284;28;20194;-54
2021/09/16 09:26:25;;;;;;;2.28;2.10;;;18.20;99.90;;;18.85;100.00;97854.19;5171172;28;20201;-57
2021/09/16 09:29:15;;;;;;;2.28;2.08;;;18.20;99.90;;;18.93;100.00;97856.09;5179925;28;20207;-58
2021/09/16 09:32:08;;;;;;;2.25;2.05;;;18.20;99.90;;;18.97;100.00;97852.75;5175691;28;20206;-59
2021/09/16 09:34:41;;;;;;;2.58;1.90;;;18.20;99.90;;;18.98;100.00;97851.91;5180568;28;20238;-56
2021/09/16 09:37:19;;;;;;;2.30;2.10;;;18.20;99.90;;;18.99;100.00;97856.25;5173565;28;20199;-59
2021/09/16 09:40:00;;;;;;;2.50;2.20;;;18.20;99.90;;;19.01;100.00;97845.09;5184913;28;20404;-58
2021/09/16 09:42:34;;;;;;;2.20;2.10;;;18.20;99.90;;;19.02;100.00;97853.72;5183053;28;20199;-55
2021/09/16 09:45:10;;;;;;;2.45;2.25;;;18.20;99.90;;;19.03;100.00;97853.78;5183469;28;20238;-59
2021/09/16 09:47:45;;;;;;;2.15;2.00;;;18.20;99.90;;;19.10;100.00;97850.47;5185129;28;20285;-57
2021/09/16 09:50:23;;;;;;;2.67;2.47;;;18.30;99.90;;;19.11;100.00;97853.94;5173854;28;20277;-56
2021/09/16 09:53:15;;;;;;;3.47;3.00;;;18.30;99.90;;;19.29;100.00;97845.75;5180213;28;20251;-59
2021/09/16 09:55:49;;;;;;;3.72;3.42;;;18.40;99.90;;;19.31;100.00;97859.59;5183013;28;20567;-57
2021/09/16 09:58:35;;;;;;;4.53;4.13;;;18.50;99.90;;;19.38;100.00;97852.84;5183089;28;20202;-55
2021/09/16 10:01:29;;;;;;;4.05;3.75;;;18.50;99.90;;;19.39;100.00;97842.50;5177855;28;20198;-54
2021/09/16 10:04:25;;;;;;;3.95;3.55;;;18.50;99.90;;;19.48;100.00;97845.28;5177213;28;20310;-59
2021/09/16 10:07:01;;;;;;;3.90;3.50;;;18.40;99.90;;;19.50;100.00;97845.31;5180126;28;20230;-54
2021/09/16 10:09:35;;;;;;;3.95;3.55;;;18.50;99.90;;;19.65;100.00;97847.38;5181301;28;20202;-56
2021/09/16 10:12:08;;;;;;;5.05;4.70;;;18.50;99.90;;;19.57;100.00;97847.19;5177984;28;20657;-60
2021/09/16 10:14:47;;;;;;;5.00;4.60;;;18.60;99.90;;;19.55;100.00;97848.91;5180290;28;20265;-63
2021/09/16 10:17:20;;;;;;;5.70;5.20;;;18.50;99.90;;;19.48;100.00;97857.38;5184786;28;20294;-62
2021/09/16 10:19:55;;;;;;;5.00;4.60;;;18.50;99.90;;;19.40;100.00;97852.03;5182473;28;20206;-59
2021/09/16 10:22:29;;;;;;;4.28;3.97;;;18.50;99.90;;;19.39;100.00;97858.03;5180157;28;20190;-54
2021/09/16 10:25:06;;;;;;;4.18;3.78;;;18.40;99.90;;;19.35;100.00;97856.22;5176402;28;20314;-58
2021/09/16 10:27:42;;;;;;;3.95;3.70;;;18.50;99.90;;;19.40;100.00;97858.91;5183315;28;20571;-54
2021/09/16 10:30:37;;;;;;;4.15;3.75;;;18.40;99.90;;;19.36;100.00;97856.25;5173817;28;20553;-53
2021/09/16 10:33:17;;;;;;;3.92;3.63;;;18.40;99.90;;;19.25;100.00;97857.72;5176878;28;20281;-53
2021/09/16 10:36:08;;;;;;;3.25;3.05;;;18.40;99.90;;;19.18;100.00;97863.63;5175021;28;20218;-55
2021/09/16 10:38:43;;;;;;;2.80;2.60;;;18.20;99.90;;;19.17;100.00;97856.66;5176561;28;20601;-60
2021/09/16 10:41:25;;;;;;;2.42;2.22;;;18.20;99.90;;;19.16;100.00;97857.53;5174211;28;20210;-57
2021/09/16 10:44:22;;;;;;;2.30;2.20;;;18.20;99.90;;;19.16;100.00;97854.06;5174577;28;20698;-56
2021/09/16 10:47:00;;;;;;;2.50;2.38;;;18.10;99.90;;;19.10;100.00;97860.84;5170854;28;20209;-59